Time;durP1;ratioP1;P1;durP2;ratioP2;P2;SDS_P1;SDS_P2;PMS_P1;PMS_P2;Temp;Humidity;BMP_temperature;BMP_pressure;BME280_temperature;BME280_humidity;BME280_pressure;Samples;Min_cycle;Max_cycle;Signal;HPM_P1;HPM_P2
2021/12/28 00:00:27;;;;;;;1.77;1.67;;;;;;;6.88;100.00;99543.03;6245408;23;20079;-81
2021/12/28 01:32:08;;;;;;;1.25;1.15;;;;;;;6.67;100.00;99491.28;6230706;22;20078;-80
2021/12/28 01:34:33;;;;;;;1.95;1.83;;;;;;;6.69;100.00;99484.16;6247883;23;20048;-80
2021/12/28 01:37:02;;;;;;;0.93;0.93;;;;;;;6.74;100.00;99492.72;6247395;23;20027;-80
2021/12/28 01:39:43;;;;;;;0.85;0.85;;;;;;;6.87;100.00;99491.22;6248235;23;20016;-81
2021/12/28 01:42:09;;;;;;;1.23;1.17;;;;;;;6.84;100.00;99491.38;6247906;23;20000;-80
2021/12/28 03:29:26;;;;;;;0.70;0.70;;;;;;;6.72;100.00;99431.25;6228352;22;20027;-80
2021/12/28 03:31:52;;;;;;;0.98;0.98;;;;;;;6.75;100.00;99437.25;6246798;23;20016;-80
2021/12/28 03:34:26;;;;;;;0.60;0.60;;;;;;;6.78;100.00;99430.94;6246968;23;20003;-79
2021/12/28 03:36:52;;;;;;;0.98;0.90;;;;;;;6.76;100.00;99430.19;6246715;23;20073;-80
2021/12/28 03:39:29;;;;;;;0.90;0.90;;;;;;;6.73;100.00;99423.25;6247319;23;20416;-80
2021/12/28 03:45:28;;;;;;;1.13;1.08;;;;;;;6.84;100.00;99417.47;6247135;23;20023;-80
2021/12/28 03:51:45;;;;;;;0.63;0.63;;;;;;;6.89;100.00;99418.94;6246798;23;20015;-80
2021/12/28 03:54:20;;;;;;;0.50;0.50;;;;;;;6.80;100.00;99419.41;6245846;23;20093;-80
2021/12/28 03:56:45;;;;;;;1.52;1.42;;;;;;;6.85;100.00;99414.75;6246949;23;20008;-79
2021/12/28 03:59:23;;;;;;;1.27;1.17;;;;;;;6.90;100.00;99411.88;6246479;23;20408;-80
2021/12/28 04:01:49;;;;;;;0.77;0.77;;;;;;;6.87;100.00;99417.31;6246173;23;20089;-80
2021/12/28 04:07:21;;;;;;;0.70;0.70;;;;;;;6.93;100.00;99411.72;6246050;22;20111;-81
2021/12/28 04:12:20;;;;;;;0.70;0.70;;;;;;;6.93;100.00;99407.31;6246420;23;20424;-80
2021/12/28 04:14:45;;;;;;;1.52;1.42;;;;;;;6.94;100.00;99413.41;6246974;23;20373;-79
2021/12/28 04:17:14;;;;;;;0.63;0.63;;;;;;;7.02;100.00;99406.84;6247144;23;20031;-80
2021/12/28 04:19:45;;;;;;;0.80;0.80;;;;;;;6.99;100.00;99400.84;6246985;23;20011;-80
2021/12/28 04:22:20;;;;;;;1.15;1.10;;;;;;;6.97;100.00;99408.84;6245736;22;20019;-80
2021/12/28 04:24:58;;;;;;;1.77;1.60;;;;;;;6.97;100.00;99410.63;6246028;23;20004;-80
2021/12/28 04:28:00;;;;;;;2.05;1.30;;;;;;;6.99;100.00;99392.94;6246225;23;20321;-80
2021/12/28 04:30:41;;;;;;;0.63;0.63;;;;;;;7.06;100.00;99404.91;6246946;23;20012;-80
2021/12/28 04:33:06;;;;;;;1.20;1.15;;;;;;;7.07;100.00;99396.03;6246407;22;20004;-80
2021/12/28 04:35:57;;;;;;;0.82;0.63;;;;;;;7.05;100.00;99396.13;6246958;23;20053;-79
2021/12/28 04:41:48;;;;;;;1.30;1.20;;;;;;;7.11;100.00;99392.28;6246679;23;20047;-80
2021/12/28 04:51:08;;;;;;;0.93;0.90;;;;;;;7.38;100.00;99394.38;6094558;23;20025;-80
2021/12/28 04:53:39;;;;;;;2.55;1.60;;;;;;;7.40;100.00;99391.66;6093733;23;20343;-80
2021/12/28 04:56:05;;;;;;;1.05;1.05;;;;;;;7.41;100.00;99385.41;6176911;23;20454;-80
2021/12/28 04:58:58;;;;;;;1.17;1.15;;;;;;;7.47;100.00;99387.72;6245418;23;20036;-80
2021/12/28 05:01:38;;;;;;;0.60;0.60;;;;;;;7.68;100.00;99389.22;6245227;23;20011;-80
2021/12/28 05:04:18;;;;;;;0.60;0.60;;;;;;;7.74;100.00;99383.59;6245697;23;20004;-81
2021/12/28 05:06:44;;;;;;;0.88;0.88;;;;;;;7.77;100.00;99378.16;6246033;23;20412;-80
2021/12/28 05:13:20;;;;;;;1.75;1.52;;;;;;;7.88;100.00;99370.50;6150500;23;20024;-80
2021/12/28 05:15:46;;;;;;;0.93;0.93;;;;;;;7.85;100.00;99373.31;6210729;23;20012;-81
2021/12/28 05:18:13;;;;;;;1.17;1.15;;;;;;;7.99;100.00;99378.69;6245930;23;20001;-80
2021/12/28 05:20:47;;;;;;;2.60;1.27;;;;;;;7.98;100.00;99370.84;6245871;23;20000;-80
2021/12/28 05:23:29;;;;;;;2.53;1.30;;;;;;;8.03;100.00;99374.94;6245411;23;20024;-80
2021/12/28 05:29:23;;;;;;;0.60;0.60;;;;;;;8.10;100.00;99365.72;6172384;23;20399;-81
2021/12/28 05:32:05;;;;;;;0.50;0.50;;;;;;;8.13;100.00;99346.22;6245309;23;20008;-80
2021/12/28 05:34:30;;;;;;;0.60;0.60;;;;;;;8.18;100.00;99352.94;6246010;23;20004;-80
2021/12/28 05:37:29;;;;;;;1.75;1.67;;;;;;;8.19;100.00;99348.50;6245782;23;20008;-80
2021/12/28 05:39:55;;;;;;;1.00;0.90;;;;;;;8.17;100.00;99347.72;6245521;23;20000;-80
2021/12/28 05:42:20;;;;;;;0.82;0.82;;;;;;;8.25;100.00;99343.75;6245473;23;20248;-80
2021/12/28 05:44:46;;;;;;;0.95;0.93;;;;;;;8.22;100.00;99335.97;6219045;23;20144;-80
2021/12/28 05:47:11;;;;;;;1.92;1.25;;;;;;;8.22;100.00;99340.38;6245808;23;20054;-79
2021/12/28 05:49:36;;;;;;;1.42;1.15;;;;;;;8.20;100.00;99344.91;6245783;23;20004;-79
2021/12/28 05:52:03;;;;;;;1.23;1.13;;;;;;;8.23;100.00;99339.47;6245787;23;20008;-80
2021/12/28 05:54:28;;;;;;;1.70;1.55;;;;;;;8.30;100.00;99340.84;6246037;23;20079;-80
2021/12/28 05:56:54;;;;;;;2.55;2.35;;;;;;;8.29;100.00;99328.56;6245744;23;20101;-79
2021/12/28 05:59:19;;;;;;;0.55;0.55;;;;;;;8.29;100.00;99331.22;6245443;23;20008;-80
2021/12/28 06:01:47;;;;;;;0.63;0.63;;;;;;;8.35;100.00;99323.75;6245923;23;20005;-79
2021/12/28 06:04:12;;;;;;;1.05;0.88;;;;;;;8.33;100.00;99328.31;6245875;23;20004;-80
2021/12/28 06:06:38;;;;;;;1.52;1.42;;;;;;;8.35;100.00;99322.91;6245699;23;20004;-80
2021/12/28 06:09:06;;;;;;;2.40;1.55;;;;;;;8.32;100.00;99318.63;6245569;23;20039;-81
2021/12/28 06:11:34;;;;;;;1.67;0.73;;;;;;;8.29;100.00;99310.88;6246535;23;20030;-80
2021/12/28 06:13:59;;;;;;;1.80;1.70;;;;;;;8.29;100.00;99302.94;6246099;23;20129;-82
2021/12/28 06:16:25;;;;;;;1.42;1.33;;;;;;;8.25;100.00;99298.78;6245588;23;20036;-83
2021/12/28 06:18:50;;;;;;;1.10;0.73;;;;;;;8.32;100.00;99297.47;6246555;23;20004;-81
2021/12/28 06:21:16;;;;;;;1.30;1.20;;;;;;;8.34;100.00;99294.75;6247381;23;20048;-81
2021/12/28 06:23:42;;;;;;;1.45;1.35;;;;;;;8.29;100.00;99297.66;6247463;23;20087;-81
2021/12/28 06:26:08;;;;;;;1.00;0.60;;;;;;;8.32;100.00;99300.13;6248368;23;20027;-81
2021/12/28 06:28:33;;;;;;;0.80;0.60;;;;;;;8.28;100.00;99298.63;6248022;23;20447;-83
2021/12/28 06:30:59;;;;;;;1.63;1.52;;;;;;;8.36;100.00;99306.97;6248848;23;20085;-81
2021/12/28 06:33:25;;;;;;;1.65;1.38;;;;;;;8.35;100.00;99305.22;6247999;23;20007;-81
2021/12/28 06:35:51;;;;;;;0.75;0.75;;;;;;;8.40;100.00;99300.53;6249371;23;20011;-82
2021/12/28 06:38:18;;;;;;;1.67;1.58;;;;;;;8.36;100.00;99296.38;6248927;23;20079;-81
2021/12/28 06:40:44;;;;;;;2.75;1.20;;;;;;;8.34;100.00;99300.91;6247460;23;20004;-81
2021/12/28 06:43:13;;;;;;;1.90;1.80;;;;;;;8.34;100.00;99292.09;6246742;23;20040;-81
2021/12/28 06:45:39;;;;;;;1.60;1.40;;;;;;;8.37;100.00;99294.56;6246795;23;20110;-81
2021/12/28 06:48:05;;;;;;;1.85;1.60;;;;;;;8.36;100.00;99288.44;6247204;23;20452;-81
2021/12/28 06:50:31;;;;;;;2.70;1.88;;;;;;;8.34;100.00;99292.97;6247614;23;20005;-82
2021/12/28 06:52:56;;;;;;;4.32;0.90;;;;;;;8.40;100.00;99295.25;6246941;23;20008;-82
2021/12/28 06:55:25;;;;;;;4.55;2.35;;;;;;;8.40;100.00;99284.66;6221365;23;20466;-82
2021/12/28 06:58:00;;;;;;;2.13;1.95;;;;;;;8.40;100.00;99295.25;6247077;23;20515;-81
2021/12/28 07:00:26;;;;;;;2.67;2.10;;;;;;;8.42;100.00;99292.50;6245751;23;20360;-81
2021/12/28 07:02:51;;;;;;;3.10;1.88;;;;;;;8.44;100.00;99285.34;6247174;23;20065;-82
2021/12/28 07:05:16;;;;;;;2.10;1.90;;;;;;;8.50;100.00;99291.13;6247060;23;20113;-80
2021/12/28 07:07:42;;;;;;;1.35;1.05;;;;;;;8.48;100.00;99292.13;6220755;23;20004;-81
2021/12/28 07:10:09;;;;;;;2.15;1.67;;;;;;;8.46;100.00;99292.22;6247148;23;20006;-81
2021/12/28 07:12:35;;;;;;;5.50;2.42;;;;;;;8.47;100.00;99285.16;6247068;23;20031;-81
2021/12/28 07:15:01;;;;;;;4.70;2.17;;;;;;;8.49;100.00;99284.16;6246777;23;20004;-81
2021/12/28 07:17:27;;;;;;;2.08;1.85;;;;;;;8.47;100.00;99275.44;6247050;23;20000;-81
2021/12/28 07:19:55;;;;;;;4.93;2.00;;;;;;;8.49;100.00;99262.13;6246841;23;20022;-80
2021/12/28 07:22:21;;;;;;;2.17;1.38;;;;;;;8.50;100.00;99261.16;6246596;23;20080;-80
2021/12/28 07:24:46;;;;;;;1.48;1.27;;;;;;;8.50;100.00;99264.66;6246731;23;20186;-81
2021/12/28 07:27:12;;;;;;;1.67;1.58;;;;;;;8.50;100.00;99275.25;6246406;23;20000;-82
2021/12/28 07:29:37;;;;;;;1.70;1.60;;;;;;;8.50;100.00;99274.41;6245264;23;20008;-82
2021/12/28 07:32:04;;;;;;;2.70;1.20;;;;;;;8.52;100.00;99273.38;6245489;23;20083;-81
2021/12/28 07:34:31;;;;;;;2.22;2.05;;;;;;;8.56;100.00;99274.03;6246499;23;20004;-80
2021/12/28 07:36:56;;;;;;;2.15;2.00;;;;;;;8.55;100.00;99275.84;6245914;23;20000;-81
2021/12/28 07:39:22;;;;;;;3.42;3.13;;;;;;;8.58;100.00;99272.16;6246987;23;20007;-81
2021/12/28 07:41:50;;;;;;;2.35;1.73;;;;;;;8.62;100.00;99269.22;6246482;23;20000;-81
2021/12/28 07:44:22;;;;;;;1.90;1.65;;;;;;;8.55;100.00;99265.25;6246253;23;20000;-80
2021/12/28 07:46:48;;;;;;;1.40;1.30;;;;;;;8.58;100.00;99257.13;6245083;23;20011;-80
2021/12/28 07:49:15;;;;;;;2.45;2.25;;;;;;;8.64;100.00;99262.06;6246975;23;20004;-80
2021/12/28 07:51:40;;;;;;;3.17;2.35;;;;;;;8.59;100.00;99250.03;6246903;23;20081;-81
2021/12/28 07:54:08;;;;;;;2.45;1.88;;;;;;;8.60;100.00;99255.25;6246056;23;20008;-80
2021/12/28 07:56:40;;;;;;;0.63;0.63;;;;;;;8.59;100.00;99257.97;6246371;23;20424;-81
2021/12/28 07:59:05;;;;;;;1.58;1.48;;;;;;;8.59;100.00;99264.13;6246860;23;20008;-81
2021/12/28 08:01:32;;;;;;;2.63;2.40;;;;;;;8.65;100.00;99257.63;6246688;23;20071;-81
2021/12/28 08:04:03;;;;;;;2.33;1.58;;;;;;;8.63;100.00;99262.16;6246326;23;20054;-81
2021/12/28 08:06:29;;;;;;;0.90;0.90;;;;;;;8.65;100.00;99247.03;6246603;23;20008;-81
2021/12/28 08:08:57;;;;;;;1.67;1.58;;;;;;;8.70;100.00;99255.53;6219585;23;20004;-81
2021/12/28 08:11:28;;;;;;;2.40;1.95;;;;;;;8.63;100.00;99248.91;6246187;23;20404;-83
2021/12/28 08:14:04;;;;;;;2.92;2.63;;;;;;;8.64;100.00;99240.03;6246262;23;20075;-81
2021/12/28 08:16:30;;;;;;;3.55;2.55;;;;;;;8.63;100.00;99240.97;6246251;23;20014;-81
2021/12/28 08:18:55;;;;;;;2.28;1.58;;;;;;;8.65;100.00;99237.28;6244909;23;20440;-82
2021/12/28 08:21:21;;;;;;;3.25;1.85;;;;;;;8.71;100.00;99246.66;6246390;23;20000;-81
2021/12/28 08:23:46;;;;;;;3.03;2.28;;;;;;;8.69;100.00;99243.25;6244617;23;20043;-81
2021/12/28 08:26:24;;;;;;;2.17;2.03;;;;;;;8.66;100.00;99236.34;6245897;23;20011;-80
2021/12/28 08:28:52;;;;;;;1.75;1.65;;;;;;;8.65;100.00;99237.28;6246278;23;20432;-80
2021/12/28 08:31:21;;;;;;;3.20;2.60;;;;;;;8.66;100.00;99236.34;6247715;23;20004;-80
2021/12/28 08:33:53;;;;;;;1.90;1.42;;;;;;;8.71;100.00;99231.66;6247005;23;20042;-82
2021/12/28 08:36:18;;;;;;;9.73;2.45;;;;;;;8.68;100.00;99231.81;6220674;23;20110;-81
2021/12/28 08:39:06;;;;;;;1.92;1.58;;;;;;;8.74;99.01;99239.41;6244679;23;20107;-81
2021/12/28 08:41:31;;;;;;;3.10;2.80;;;;;;;8.72;97.81;99238.63;6246083;23;20015;-81
2021/12/28 08:44:16;;;;;;;4.20;2.17;;;;;;;8.81;96.56;99248.66;6247096;23;20015;-80
2021/12/28 08:46:50;;;;;;;4.50;1.77;;;;;;;8.82;95.83;99238.94;6244843;23;20090;-81
2021/12/28 08:49:15;;;;;;;1.95;1.85;;;;;;;8.80;95.42;99225.78;6248115;23;20004;-83
2021/12/28 08:51:42;;;;;;;2.05;1.40;;;;;;;8.86;95.80;99237.78;6244683;22;20095;-82
2021/12/28 08:54:21;;;;;;;2.35;2.15;;;;;;;8.89;96.13;99222.56;6244082;23;20019;-83
2021/12/28 08:56:51;;;;;;;1.90;1.67;;;;;;;8.94;96.47;99220.50;6245349;23;20308;-81
2021/12/28 08:59:17;;;;;;;2.15;1.42;;;;;;;8.96;97.06;99221.25;6246472;23;20000;-81
2021/12/28 09:01:46;;;;;;;4.03;2.45;;;;;;;8.96;97.91;99220.41;6245919;23;20004;-83
2021/12/28 09:04:11;;;;;;;5.65;2.42;;;;;;;8.96;98.34;99215.97;6247700;23;20041;-81
2021/12/28 09:06:37;;;;;;;1.67;1.25;;;;;;;9.05;98.48;99210.09;6246224;23;20005;-81
2021/12/28 09:09:03;;;;;;;3.10;2.80;;;;;;;9.05;99.34;99209.22;6247389;23;20274;-81
2021/12/28 09:11:28;;;;;;;3.67;2.67;;;;;;;9.08;99.94;99201.94;6246095;23;20000;-81
2021/12/28 09:13:53;;;;;;;2.53;2.33;;;;;;;9.11;100.00;99198.25;6247485;23;20413;-81
2021/12/28 09:16:19;;;;;;;8.20;1.55;;;;;;;9.16;100.00;99190.88;6247614;22;20102;-82
2021/12/28 09:18:45;;;;;;;2.20;1.88;;;;;;;9.19;100.00;99185.38;6244319;23;20005;-82
2021/12/28 09:21:11;;;;;;;1.60;1.10;;;;;;;9.15;100.00;99186.53;6246216;23;20813;-82
2021/12/28 09:23:38;;;;;;;1.90;1.70;;;;;;;9.15;100.00;99184.72;6247502;23;20024;-82
2021/12/28 09:26:04;;;;;;;1.45;1.02;;;;;;;9.11;100.00;99191.16;6245611;23;20054;-82
2021/12/28 09:28:29;;;;;;;2.90;2.63;;;;;;;9.13;100.00;99177.81;6245392;22;20000;-81
2021/12/28 09:30:55;;;;;;;2.28;2.00;;;;;;;9.16;100.00;99182.91;6218153;23;20009;-82
2021/12/28 09:33:29;;;;;;;2.35;1.17;;;;;;;9.21;100.00;99176.41;6245154;23;20347;-82
2021/12/28 09:35:55;;;;;;;2.40;2.20;;;;;;;9.21;100.00;99178.19;6245421;23;20004;-81
2021/12/28 09:38:22;;;;;;;1.98;1.60;;;;;;;9.20;100.00;99171.19;6246088;23;20000;-82
2021/12/28 09:40:50;;;;;;;1.35;1.20;;;;;;;9.18;100.00;99170.44;6243556;23;20008;-82
2021/12/28 09:43:15;;;;;;;3.38;1.60;;;;;;;9.25;100.00;99172.59;6245711;23;20070;-82
2021/12/28 09:45:41;;;;;;;1.38;1.08;;;;;;;9.32;100.00;99175.72;6246013;23;20012;-82
2021/12/28 09:48:08;;;;;;;1.75;1.65;;;;;;;9.31;100.00;99163.41;6245456;22;20012;-82
2021/12/28 09:50:34;;;;;;;1.10;1.05;;;;;;;9.40;100.00;99172.56;6245768;23;20297;-82
2021/12/28 09:53:43;;;;;;;;;;;;;;;;;;;;;
2021/12/28 09:56:19;;;;;;;0.93;0.93;;;;;;;9.36;100.00;99155.19;6097810;23;20042;-82
2021/12/28 09:58:54;;;;;;;1.58;0.50;;;;;;;9.44;100.00;99151.06;6095964;23;20011;-82
2021/12/28 10:01:20;;;;;;;1.17;0.95;;;;;;;9.54;100.00;99151.31;6213134;23;20098;-82
2021/12/28 10:03:59;;;;;;;1.75;1.23;;;;;;;9.54;100.00;99148.66;6246500;23;20367;-82
2021/12/28 10:06:27;;;;;;;0.60;0.60;;;;;;;9.59;100.00;99155.38;6247752;23;20011;-82
2021/12/28 10:09:14;;;;;;;1.23;1.13;;;;;;;9.50;100.00;99142.75;6248372;23;20004;-81
2021/12/28 10:11:53;;;;;;;0.25;0.25;;;;;;;9.59;100.00;99143.94;6247154;23;20008;-81
2021/12/28 10:14:26;;;;;;;2.65;1.70;;;;;;;9.50;100.00;99129.50;6246508;23;20452;-81
2021/12/28 10:16:57;;;;;;;0.68;0.68;;;;;;;9.47;100.00;99126.19;6247094;23;20031;-81
2021/12/28 10:19:38;;;;;;;0.63;0.63;;;;;;;9.39;100.00;99117.88;6249008;23;20000;-84
2021/12/28 10:22:34;;;;;;;0.63;0.50;;;;;;;9.45;100.00;99114.81;6249374;23;20325;-82
2021/12/28 10:25:12;;;;;;;0.38;0.38;;;;;;;9.47;100.00;99119.06;6247754;23;20016;-82
2021/12/28 10:27:41;;;;;;;0.30;0.30;;;;;;;9.51;100.00;99111.78;6246520;23;20356;-81
2021/12/28 10:30:22;;;;;;;0.47;0.45;;;;;;;9.46;100.00;99113.88;6246385;23;20008;-81
2021/12/28 10:32:56;;;;;;;1.05;0.95;;;;;;;9.43;100.00;99108.78;6246510;23;20293;-81
2021/12/28 10:35:30;;;;;;;0.93;0.60;;;;;;;9.42;100.00;99107.94;6246717;23;20427;-81
2021/12/28 10:37:59;;;;;;;0.73;0.73;;;;;;;9.52;100.00;99108.19;6244287;23;20000;-82
2021/12/28 10:40:45;;;;;;;1.58;0.70;;;;;;;9.45;100.00;99101.56;6235550;23;20008;-82
2021/12/28 10:43:11;;;;;;;1.40;0.60;;;;;;;9.42;100.00;99097.34;6246086;23;20012;-82
2021/12/28 10:45:51;;;;;;;0.40;0.40;;;;;;;9.43;100.00;99092.88;6247540;23;20016;-82
2021/12/28 10:48:19;;;;;;;0.55;0.55;;;;;;;9.40;100.00;99079.81;6246358;23;20119;-82
2021/12/28 10:50:48;;;;;;;0.52;0.50;;;;;;;9.36;100.00;99073.88;6246389;23;20115;-82
2021/12/28 10:53:21;;;;;;;0.70;0.68;;;;;;;9.34;100.00;99071.31;6246052;23;20431;-82
2021/12/28 10:55:51;;;;;;;1.67;1.02;;;;;;;9.34;100.00;99070.50;6246061;23;20470;-82
2021/12/28 10:58:51;;;;;;;0.82;0.63;;;;;;;9.28;100.00;99061.13;6245517;23;20004;-82
2021/12/28 11:01:18;;;;;;;0.45;0.45;;;;;;;9.38;100.00;99053.44;6243095;23;20447;-81
2021/12/28 11:03:55;;;;;;;0.60;0.60;;;;;;;9.34;100.00;99051.94;6219110;23;20008;-80
2021/12/28 11:06:24;;;;;;;0.85;0.70;;;;;;;9.24;100.00;99042.91;6246011;23;20331;-82
2021/12/28 11:08:53;;;;;;;0.45;0.45;;;;;;;9.22;100.00;99039.50;6247823;23;20008;-81
2021/12/28 11:11:21;;;;;;;0.63;0.55;;;;;;;9.19;100.00;99022.00;6249348;23;20027;-81
2021/12/28 11:13:48;;;;;;;0.60;0.60;;;;;;;9.19;100.00;99032.59;6247210;23;20012;-83
2021/12/28 11:16:15;;;;;;;0.68;0.50;;;;;;;9.12;100.00;99030.47;6246196;23;20011;-82
2021/12/28 11:18:44;;;;;;;0.82;0.70;;;;;;;9.14;100.00;99040.00;6246024;23;20000;-82
2021/12/28 11:21:27;;;;;;;0.57;0.57;;;;;;;9.12;100.00;99027.81;6245781;23;20004;-82
2021/12/28 11:24:06;;;;;;;1.95;0.82;;;;;;;9.20;100.00;99034.28;6245513;23;20417;-82
2021/12/28 11:26:49;;;;;;;0.60;0.60;;;;;;;9.21;100.00;99020.13;6246840;23;20022;-82
2021/12/28 11:29:17;;;;;;;0.88;0.70;;;;;;;9.20;100.00;99023.69;6238650;23;20012;-83
2021/12/28 11:31:51;;;;;;;0.60;0.60;;;;;;;9.17;100.00;99021.25;6246156;23;20000;-84
2021/12/28 11:34:32;;;;;;;0.77;0.77;;;;;;;9.18;100.00;99030.91;6246223;23;20008;-83
2021/12/28 11:37:00;;;;;;;0.50;0.50;;;;;;;9.21;100.00;99022.78;6246004;23;20000;-82
2021/12/28 11:39:44;;;;;;;1.00;0.90;;;;;;;9.27;100.00;99009.13;6245907;23;20428;-82
2021/12/28 11:42:11;;;;;;;0.63;0.50;;;;;;;9.24;100.00;99008.47;6245940;23;20039;-83
2021/12/28 11:44:37;;;;;;;0.40;0.40;;;;;;;9.28;100.00;99017.94;6248876;23;20008;-83
2021/12/28 11:47:08;;;;;;;0.40;0.40;;;;;;;9.26;100.00;99019.81;6221840;23;20004;-84
2021/12/28 11:49:35;;;;;;;0.60;0.60;;;;;;;9.26;100.00;99048.97;6245850;23;20012;-82
2021/12/28 11:52:04;;;;;;;0.40;0.40;;;;;;;9.14;100.00;99045.31;6244080;23;20031;-82
2021/12/28 11:54:38;;;;;;;1.60;0.97;;;;;;;8.95;100.00;99034.19;6244719;23;20008;-83
2021/12/28 11:57:16;;;;;;;0.40;0.40;;;;;;;8.83;100.00;99023.56;6218470;23;20011;-83
2021/12/28 12:00:03;;;;;;;0.50;0.50;;;;;;;8.83;100.00;99007.66;6241540;23;20015;-83
2021/12/28 12:02:41;;;;;;;5.93;0.90;;;;;;;8.80;100.00;99002.56;6246405;23;20012;-83
2021/12/28 12:05:23;;;;;;;0.68;0.68;;;;;;;8.84;100.00;98982.91;6248158;23;19992;-83
2021/12/28 12:08:10;;;;;;;0.50;0.50;;;;;;;8.80;100.00;98976.97;6245613;23;20027;-82
2021/12/28 12:10:37;;;;;;;0.40;0.40;;;;;;;8.78;100.00;98957.69;6244915;23;20004;-82
2021/12/28 12:13:14;;;;;;;0.30;0.30;;;;;;;8.83;100.00;98962.66;6245869;23;20420;-84
2021/12/28 12:15:45;;;;;;;0.55;0.55;;;;;;;8.84;100.00;98957.28;6246526;23;20004;-86
2021/12/28 12:18:13;;;;;;;2.05;1.95;;;;;;;8.89;100.00;98956.97;6247078;23;20262;-86
2021/12/28 12:20:46;;;;;;;1.30;1.20;;;;;;;8.90;100.00;98966.63;6246427;23;20000;-86
2021/12/28 12:23:17;;;;;;;5.03;0.80;;;;;;;8.95;100.00;98954.78;6245502;23;20016;-86
2021/12/28 12:26:00;;;;;;;1.55;0.77;;;;;;;9.14;100.00;98944.66;6246680;23;20011;-88
2021/12/28 12:28:55;;;;;;;1.77;1.63;;;;;;;9.39;100.00;98959.78;6241498;23;20486;-85
2021/12/28 12:31:32;;;;;;;4.53;1.17;;;;;;;9.63;100.00;98957.25;6226529;23;20023;-85
2021/12/28 12:34:00;;;;;;;2.88;1.15;;;;;;;9.90;100.00;98940.28;6247513;23;20118;-86
2021/12/28 12:36:41;;;;;;;1.52;1.08;;;;;;;10.08;100.00;98956.72;6248507;23;20027;-85
2021/12/28 12:39:08;;;;;;;0.43;0.30;;;;;;;10.21;100.00;98949.63;6246786;23;20058;-85
2021/12/28 12:41:50;;;;;;;1.85;1.45;;;;;;;10.38;100.00;98941.28;6246268;23;20016;-84
2021/12/28 12:44:25;;;;;;;1.48;1.38;;;;;;;10.39;100.00;98929.72;6246298;23;20400;-86
2021/12/28 12:46:53;;;;;;;1.50;0.75;;;;;;;10.31;100.00;98940.88;6220257;23;20012;-86
2021/12/28 12:49:26;;;;;;;1.65;0.55;;;;;;;10.49;100.00;98913.00;6246481;23;20004;-84
2021/12/28 12:51:54;;;;;;;3.85;1.52;;;;;;;10.95;100.00;98905.19;6246037;23;20008;-85
2021/12/28 12:54:25;;;;;;;0.95;0.93;;;;;;;11.86;100.00;98910.50;6246097;23;20062;-83
2021/12/28 12:57:03;;;;;;;4.90;1.58;;;;;;;12.09;100.00;98882.91;6246437;23;20000;-83
2021/12/28 12:59:37;;;;;;;2.15;0.55;;;;;;;10.91;100.00;98863.84;6246037;23;20000;-82
2021/12/28 13:02:32;;;;;;;3.08;1.23;;;;;;;10.25;100.00;98876.78;6245102;23;20008;-82
2021/12/28 13:05:21;;;;;;;7.22;1.42;;;;;;;9.96;100.00;98880.66;6237500;23;20452;-83
2021/12/28 13:07:47;;;;;;;3.03;1.95;;;;;;;9.82;100.00;98872.81;6246103;23;20007;-85
2021/12/28 13:10:25;;;;;;;3.63;1.38;;;;;;;9.92;100.00;98869.44;6246248;23;20011;-89
2021/12/28 13:12:54;;;;;;;1.98;0.52;;;;;;;9.83;100.00;98877.19;6243861;23;20035;-86
2021/12/28 13:15:25;;;;;;;1.65;0.90;;;;;;;9.79;100.00;98889.81;6240365;23;20266;-83
2021/12/28 13:17:50;;;;;;;0.70;0.70;;;;;;;9.74;100.00;98880.50;6245713;23;20008;-84
2021/12/28 13:20:28;;;;;;;2.78;2.58;;;;;;;9.76;100.00;98889.16;6245190;23;20023;-86
2021/12/28 13:23:03;;;;;;;0.63;0.57;;;;;;;9.73;100.00;98887.59;6244970;23;20012;-84
2021/12/28 13:25:59;;;;;;;3.50;1.95;;;;;;;9.72;100.00;98885.03;6216488;23;20107;-85
2021/12/28 13:28:25;;;;;;;1.23;1.13;;;;;;;9.67;100.00;98887.16;6237525;23;20409;-84
2021/12/28 13:30:52;;;;;;;1.05;0.95;;;;;;;9.63;100.00;98888.34;6247720;23;20073;-84
2021/12/28 13:33:25;;;;;;;0.25;0.25;;;;;;;9.66;100.00;98890.78;6244703;23;20035;-85
2021/12/28 13:35:58;;;;;;;0.40;0.40;;;;;;;9.54;100.00;98888.97;6246685;23;20034;-83
2021/12/28 13:38:28;;;;;;;0.93;0.93;;;;;;;9.50;100.00;98891.00;6247632;23;20083;-84
2021/12/28 13:40:58;;;;;;;1.05;0.50;;;;;;;9.55;100.00;98896.81;6241682;23;20004;-84
2021/12/28 13:43:24;;;;;;;;;;;;;;;9.60;100.00;98893.81;6249227;23;20012;-84
2021/12/28 13:45:58;;;;;;;6.40;0.88;;;;;;;9.70;100.00;98893.09;6220137;23;19911;-84
2021/12/28 13:48:25;;;;;;;0.40;0.40;;;;;;;9.62;100.00;98900.75;6248071;23;20489;-84
2021/12/28 13:51:04;;;;;;;1.13;1.02;;;;;;;9.45;100.00;98900.19;6250805;23;20290;-85
2021/12/28 13:53:45;;;;;;;2.42;0.90;;;;;;;9.47;100.00;98891.19;6247022;23;20008;-85
2021/12/28 13:56:15;;;;;;;5.03;0.73;;;;;;;9.36;100.00;98898.19;6243926;23;20024;-87
2021/12/28 13:58:52;;;;;;;0.93;0.82;;;;;;;9.28;100.00;98906.66;6250073;23;20012;-86
2021/12/28 14:01:20;;;;;;;0.52;0.52;;;;;;;9.08;100.00;98915.09;6248560;23;20004;-87
2021/12/28 14:04:01;;;;;;;3.67;0.75;;;;;;;8.83;100.00;98936.19;6247853;23;20034;-89
2021/12/28 14:06:28;;;;;;;0.32;0.32;;;;;;;8.70;100.00;98919.41;6247375;23;20015;-84
2021/12/28 14:08:55;;;;;;;0.30;0.30;;;;;;;8.57;100.00;98929.94;6248373;23;20008;-85
2021/12/28 14:11:32;;;;;;;2.00;0.93;;;;;;;8.61;100.00;98930.59;6248570;23;20004;-87
2021/12/28 14:13:58;;;;;;;2.97;0.98;;;;;;;8.61;100.00;98925.31;6247816;23;20012;-87
2021/12/28 14:16:23;;;;;;;0.75;0.75;;;;;;;8.68;100.00;98926.63;6247487;23;20008;-87
2021/12/28 14:18:51;;;;;;;0.60;0.60;;;;;;;8.70;100.00;98927.34;6248168;23;20376;-87
2021/12/28 14:21:26;;;;;;;1.35;1.25;;;;;;;8.64;100.00;98938.34;6247845;23;20004;-86
2021/12/28 14:24:07;;;;;;;0.30;0.30;;;;;;;8.67;100.00;98941.66;6247482;23;20063;-83
2021/12/28 14:26:36;;;;;;;0.45;0.25;;;;;;;8.67;100.00;98943.44;6249049;23;20107;-88
2021/12/28 14:29:06;;;;;;;1.75;1.42;;;;;;;8.64;100.00;98943.63;6247811;23;20015;-85
2021/12/28 14:31:50;;;;;;;1.02;0.95;;;;;;;8.65;100.00;98946.19;6246308;23;20389;-86
2021/12/28 14:34:29;;;;;;;0.63;0.63;;;;;;;8.70;100.00;98954.69;6245830;23;20439;-85
2021/12/28 14:37:07;;;;;;;0.35;0.35;;;;;;;8.67;100.00;98957.53;6246900;23;20015;-85
2021/12/28 14:39:40;;;;;;;0.80;0.80;;;;;;;8.61;100.00;98965.00;6246238;23;20019;-84
2021/12/28 14:42:07;;;;;;;0.65;0.60;;;;;;;8.61;100.00;98965.00;6246023;23;20014;-84
2021/12/28 14:44:35;;;;;;;0.50;0.50;;;;;;;8.55;100.00;98966.25;6245724;23;20428;-84
2021/12/28 14:47:12;;;;;;;0.30;0.30;;;;;;;8.47;100.00;98967.69;6246027;23;20011;-84
2021/12/28 14:49:39;;;;;;;2.28;1.10;;;;;;;8.36;100.00;98978.97;6246923;23;20067;-84
2021/12/28 14:52:23;;;;;;;2.55;1.83;;;;;;;8.36;100.00;98971.03;6246285;23;20008;-84
2021/12/28 14:55:48;;;;;;;2.25;0.90;;;;;;;8.26;100.00;98975.19;6245731;23;20008;-85
2021/12/28 14:58:16;;;;;;;0.95;0.63;;;;;;;8.16;100.00;98984.63;6178911;23;20443;-85
2021/12/28 15:00:48;;;;;;;1.85;0.68;;;;;;;8.09;100.00;98991.22;6247544;23;20087;-85
2021/12/28 15:03:24;;;;;;;0.52;0.52;;;;;;;7.98;100.00;98988.38;6245993;23;20031;-85
2021/12/28 15:05:56;;;;;;;0.70;0.60;;;;;;;7.85;100.00;99005.09;6245928;23;19996;-84
2021/12/28 15:08:25;;;;;;;0.75;0.75;;;;;;;7.85;100.00;99005.09;6246137;23;20046;-84
2021/12/28 15:10:53;;;;;;;0.50;0.50;;;;;;;7.81;100.00;99007.06;6246593;23;20012;-88
2021/12/28 15:13:22;;;;;;;0.30;0.30;;;;;;;7.77;100.00;99011.69;6248449;23;20002;-87
2021/12/28 15:15:48;;;;;;;0.75;0.43;;;;;;;7.77;100.00;99008.19;6249657;23;19999;-87
2021/12/28 15:18:15;;;;;;;0.20;0.20;;;;;;;7.79;100.00;99030.09;6245678;23;20000;-84
2021/12/28 15:20:41;;;;;;;4.47;1.30;;;;;;;7.80;100.00;99026.50;6246069;23;20087;-84
2021/12/28 15:23:07;;;;;;;1.05;1.05;;;;;;;7.84;100.00;99035.97;6245177;23;20138;-85
2021/12/28 15:25:33;;;;;;;0.30;0.30;;;;;;;7.78;100.00;99036.31;6245555;23;20047;-84
2021/12/28 15:27:59;;;;;;;0.40;0.30;;;;;;;7.83;100.00;99050.13;6245524;23;20012;-84
2021/12/28 15:30:29;;;;;;;0.30;0.30;;;;;;;7.77;100.00;99040.75;6246491;23;20001;-84
2021/12/28 15:32:55;;;;;;;1.33;1.15;;;;;;;7.76;100.00;99051.41;6246075;23;20429;-84
2021/12/28 15:35:37;;;;;;;0.30;0.30;;;;;;;7.78;100.00;99052.19;6245782;23;20004;-84
2021/12/28 15:38:04;;;;;;;1.23;0.50;;;;;;;7.84;100.00;99059.75;6246004;23;20314;-84